Koen, Colorado
Current Conditions -  °F | °C
As of 2:53 PM on Sunday 21 Dec 2014 (Local Time) from KLAA Reporting Station
Broken Clouds Broken Clouds  
Wind Chill: 54°   Ceiling: 11000
Heat Index: 54°   Visibility: 10mi
Dew Point: 27°   Wind: 0mph
Humidity: 35%   Direction: NA
Pressure: 29.54"   Gusts: NA
Location:  37.8751°N, 102.389°W
Report Text: KLAA 212153Z AUTO 00000KT 10SM BKN110 12/M03 A2954 RMK AO2 SLP002 T01221028
Loading
Personal Weather Stations






























Interactive Weather Map New forecast layout! Learn more

10-Day Weather Forecast

Advertisements
Track Severe Weather on mobile